To NAV CANADA Home Page Login to a new session Search on AWWS site Feedback and Comments Disclaimer Vers la page française équivalente Tips FAQ What's new on the site To the Forecasts and Observations / NOTAM section To "File a Flight Plan" website Publications and other links Update of the User's profile FIC Telephone Numbers My Weather Data Folder Route Weather Data Regional Weather Data Local Weather Data To the Forecasts and Observations / NOTAM section
Request Generated 04/21/2014 at 04:35:09 UTC . Weather information available at that time is displayed.

METAR/TAF

LYNN LAKE/MB    (show WxCam)

METAR CYYL 210400Z AUTO 10003KT 040V140 9SM BKN055 00/M07 A2998 RMK
SLP175=
METAR CYYL 210300Z AUTO 25003KT 220V290 9SM BKN055 00/M07 A2998 RMK
SLP174=
METAR CYYL 210200Z AUTO 26002KT 9SM CLR 02/M06 A2997 RMK SLP171=

TAF CYYL 210043Z 2101/2113 VRB03KT P6SM FEW040
RMK FCST BASED ON AUTO OBS. NXT FCST BY 210700Z=
Your time UTC time
Weather data provided by Environment Canada and NAV CANADA